ANA2178 RJOO-RJAA
Flight info
| Callsign | ANA2178 |
|---|---|
| Flight time | 0h 59m |
| Altitude | 35000 |
| Route | SHTLE Y79 GUPER Y81 RUTAS |
| Aircraft | B772/H-SDE2E3FGHIJ5LORVWXY/LB1D1 |
Departure
| Time | 2026-05-05 14:00 |
|---|---|
| Airport | Osaka Itami International Airport (RJOO) |
Arrival
| Time | 2026-05-05 15:00 |
|---|---|
| Airport | Narita International Airport (RJAA) |
| Time | Latitude | Longitude | Altitude | Speed | Heading |
|---|---|---|---|---|---|
| 2026-05-05 13:32 | 34.78811 | 135.44271 | 46 ft | 0 kts | 68° |
| 2026-05-05 13:48 | 34.78807 | 135.44259 | 45 ft | 2 kts | 68° |
| 2026-05-05 13:48 | 34.78801 | 135.44240 | 43 ft | 2 kts | 69° |
| 2026-05-05 13:48 | 34.78795 | 135.44221 | 46 ft | 2 kts | 69° |
| 2026-05-05 13:48 | 34.78789 | 135.44202 | 46 ft | 2 kts | 69° |
| 2026-05-05 13:49 | 34.78783 | 135.44183 | 41 ft | 2 kts | 70° |
| 2026-05-05 13:49 | 34.78778 | 135.44164 | 40 ft | 2 kts | 72° |
| 2026-05-05 13:49 | 34.78773 | 135.44145 | 43 ft | 2 kts | 74° |
| 2026-05-05 13:49 | 34.78769 | 135.44126 | 41 ft | 2 kts | 80° |
| 2026-05-05 13:50 | 34.78767 | 135.44106 | 42 ft | 2 kts | 99° |
| 2026-05-05 13:50 | 34.78772 | 135.44089 | 40 ft | 1 kts | 135° |
| 2026-05-05 13:50 | 34.78774 | 135.44087 | 40 ft | 0 kts | 136° |
| 2026-05-05 13:53 | 34.78746 | 135.44120 | 46 ft | 10 kts | 136° |
| 2026-05-05 13:54 | 34.78688 | 135.44190 | 46 ft | 10 kts | 135° |
| 2026-05-05 13:54 | 34.78637 | 135.44254 | 46 ft | 10 kts | 133° |
| 2026-05-05 13:54 | 34.78584 | 135.44313 | 45 ft | 10 kts | 146° |
| 2026-05-05 13:54 | 34.78514 | 135.44333 | 46 ft | 10 kts | 178° |
| 2026-05-05 13:55 | 34.78460 | 135.44334 | 46 ft | 0 kts | 179° |
| 2026-05-05 13:55 | 34.78457 | 135.44334 | 46 ft | 3 kts | 179° |
| 2026-05-05 13:55 | 34.78374 | 135.44335 | 47 ft | 19 kts | 180° |
| 2026-05-05 13:56 | 34.78224 | 135.44334 | 46 ft | 19 kts | 179° |
| 2026-05-05 13:56 | 34.78110 | 135.44413 | 46 ft | 19 kts | 136° |
| 2026-05-05 13:56 | 34.78015 | 135.44529 | 44 ft | 19 kts | 135° |
| 2026-05-05 13:56 | 34.77920 | 135.44644 | 46 ft | 19 kts | 135° |
| 2026-05-05 13:57 | 34.77826 | 135.44758 | 46 ft | 18 kts | 135° |
| 2026-05-05 13:57 | 34.77741 | 135.44860 | 44 ft | 17 kts | 139° |
| 2026-05-05 13:57 | 34.77677 | 135.44916 | 46 ft | 17 kts | 148° |
| 2026-05-05 13:57 | 34.77535 | 135.45001 | 47 ft | 17 kts | 155° |
| 2026-05-05 13:58 | 34.77497 | 135.45014 | 47 ft | 0 kts | 173° |
| 2026-05-05 13:59 | 34.77453 | 135.44999 | 48 ft | 7 kts | 212° |
| 2026-05-05 13:59 | 34.77441 | 135.44927 | 49 ft | 7 kts | 301° |
| 2026-05-05 14:00 | 34.77643 | 135.44677 | 47 ft | 69 kts | 315° |
| 2026-05-05 14:00 | 34.78180 | 135.44025 | 49 ft | 147 kts | 315° |
| 2026-05-05 14:00 | 34.78960 | 135.43046 | 681 ft | 155 kts | 314° |
| 2026-05-05 14:00 | 34.79539 | 135.41939 | 1535 ft | 164 kts | 283° |
| 2026-05-05 14:01 | 34.79678 | 135.40521 | 1999 ft | 182 kts | 269° |
| 2026-05-05 14:01 | 34.79417 | 135.38936 | 2254 ft | 205 kts | 242° |
| 2026-05-05 14:01 | 34.78409 | 135.37593 | 2485 ft | 230 kts | 209° |
| 2026-05-05 14:01 | 34.76812 | 135.37079 | 2949 ft | 247 kts | 178° |
| 2026-05-05 14:02 | 34.75179 | 135.37722 | 3715 ft | 254 kts | 146° |
| 2026-05-05 14:02 | 34.74052 | 135.39372 | 4536 ft | 261 kts | 113° |
| 2026-05-05 14:02 | 34.73871 | 135.41540 | 5308 ft | 270 kts | 80° |
| 2026-05-05 14:02 | 34.74660 | 135.43623 | 6046 ft | 273 kts | 61° |
| 2026-05-05 14:03 | 34.75555 | 135.45692 | 6726 ft | 280 kts | 66° |
| 2026-05-05 14:03 | 34.76404 | 135.47847 | 7458 ft | 286 kts | 66° |
| 2026-05-05 14:03 | 34.77286 | 135.50031 | 8238 ft | 289 kts | 66° |
| 2026-05-05 14:03 | 34.78193 | 135.52235 | 8988 ft | 293 kts | 66° |
| 2026-05-05 14:04 | 34.78811 | 135.54584 | 9489 ft | 294 kts | 90° |
| 2026-05-05 14:04 | 34.78756 | 135.57055 | 10134 ft | 295 kts | 97° |
| 2026-05-05 14:04 | 34.78633 | 135.59625 | 10434 ft | 317 kts | 96° |
| 2026-05-05 14:04 | 34.78500 | 135.62403 | 10777 ft | 338 kts | 96° |
| 2026-05-05 14:05 | 34.78369 | 135.65306 | 11505 ft | 348 kts | 96° |
| 2026-05-05 14:05 | 34.78240 | 135.68278 | 12389 ft | 354 kts | 96° |
| 2026-05-05 14:05 | 34.78109 | 135.71277 | 13494 ft | 357 kts | 96° |
| 2026-05-05 14:05 | 34.77980 | 135.74319 | 14413 ft | 364 kts | 95° |
| 2026-05-05 14:06 | 34.77849 | 135.77421 | 15240 ft | 370 kts | 95° |
| 2026-05-05 14:06 | 34.77715 | 135.80575 | 16093 ft | 377 kts | 95° |
| 2026-05-05 14:06 | 34.77579 | 135.83786 | 16946 ft | 383 kts | 95° |
| 2026-05-05 14:06 | 34.77441 | 135.87058 | 17765 ft | 390 kts | 95° |
| 2026-05-05 14:07 | 34.77297 | 135.90376 | 18554 ft | 396 kts | 95° |
| 2026-05-05 14:07 | 34.77157 | 135.93699 | 19239 ft | 402 kts | 95° |
| 2026-05-05 14:07 | 34.77008 | 135.97123 | 19870 ft | 409 kts | 95° |
| 2026-05-05 14:07 | 34.76855 | 136.00614 | 20520 ft | 416 kts | 95° |
| 2026-05-05 14:08 | 34.76735 | 136.04161 | 21164 ft | 424 kts | 92° |
| 2026-05-05 14:08 | 34.76860 | 136.07781 | 21792 ft | 432 kts | 88° |
| 2026-05-05 14:08 | 34.77138 | 136.11447 | 22413 ft | 439 kts | 86° |
| 2026-05-05 14:08 | 34.77470 | 136.15166 | 23044 ft | 446 kts | 85° |
| 2026-05-05 14:09 | 34.77806 | 136.18942 | 23709 ft | 452 kts | 86° |
| 2026-05-05 14:09 | 34.78127 | 136.22785 | 24240 ft | 460 kts | 86° |
| 2026-05-05 14:09 | 34.78431 | 136.26688 | 24708 ft | 468 kts | 87° |
| 2026-05-05 14:09 | 34.78725 | 136.30664 | 25176 ft | 476 kts | 87° |
| 2026-05-05 14:10 | 34.79013 | 136.34705 | 25656 ft | 484 kts | 88° |
| 2026-05-05 14:10 | 34.79299 | 136.38811 | 26126 ft | 491 kts | 88° |
| 2026-05-05 14:10 | 34.79588 | 136.42981 | 26576 ft | 499 kts | 88° |
| 2026-05-05 14:10 | 34.79881 | 136.47222 | 27020 ft | 506 kts | 88° |
| 2026-05-05 14:11 | 34.80177 | 136.51514 | 27436 ft | 513 kts | 88° |
| 2026-05-05 14:11 | 34.80478 | 136.55877 | 27852 ft | 520 kts | 88° |
| 2026-05-05 14:11 | 34.80782 | 136.60290 | 28261 ft | 527 kts | 88° |
| 2026-05-05 14:11 | 34.81087 | 136.64757 | 28669 ft | 533 kts | 88° |
| 2026-05-05 14:12 | 34.81392 | 136.69232 | 29053 ft | 540 kts | 88° |
| 2026-05-05 14:12 | 34.81701 | 136.73809 | 29429 ft | 546 kts | 89° |
| 2026-05-05 14:12 | 34.82013 | 136.78442 | 29806 ft | 552 kts | 89° |
| 2026-05-05 14:12 | 34.82327 | 136.83125 | 30175 ft | 558 kts | 89° |
| 2026-05-05 14:13 | 34.82646 | 136.87914 | 30505 ft | 563 kts | 89° |
| 2026-05-05 14:13 | 34.82772 | 136.92581 | 30790 ft | 558 kts | 99° |
| 2026-05-05 14:13 | 34.82086 | 136.97181 | 31107 ft | 546 kts | 116° |
| 2026-05-05 14:13 | 34.80537 | 137.01274 | 31489 ft | 524 kts | 130° |
| 2026-05-05 14:14 | 34.78697 | 137.05130 | 31760 ft | 528 kts | 130° |
| 2026-05-05 14:14 | 34.76865 | 137.09029 | 32096 ft | 532 kts | 129° |
| 2026-05-05 14:14 | 34.75061 | 137.12969 | 32507 ft | 533 kts | 129° |
| 2026-05-05 14:14 | 34.73285 | 137.16932 | 32934 ft | 534 kts | 129° |
| 2026-05-05 14:15 | 34.71522 | 137.20912 | 33306 ft | 535 kts | 129° |
| 2026-05-05 14:15 | 34.69761 | 137.24902 | 33653 ft | 536 kts | 129° |
| 2026-05-05 14:15 | 34.67996 | 137.28897 | 34049 ft | 536 kts | 129° |
| 2026-05-05 14:15 | 34.66236 | 137.32874 | 34482 ft | 533 kts | 129° |
| 2026-05-05 14:16 | 34.64476 | 137.36839 | 34822 ft | 533 kts | 129° |
| 2026-05-05 14:16 | 34.62708 | 137.40802 | 35102 ft | 534 kts | 129° |
| 2026-05-05 14:16 | 34.59167 | 137.48719 | 35244 ft | 538 kts | 129° |
| 2026-05-05 14:17 | 34.55616 | 137.56668 | 35260 ft | 534 kts | 129° |
| 2026-05-05 14:17 | 34.52012 | 137.64499 | 35266 ft | 530 kts | 131° |
| 2026-05-05 14:18 | 34.48224 | 137.72162 | 35271 ft | 530 kts | 132° |
| 2026-05-05 14:18 | 34.44421 | 137.79833 | 35273 ft | 532 kts | 131° |
| 2026-05-05 14:19 | 34.40638 | 137.87549 | 35277 ft | 534 kts | 131° |
| 2026-05-05 14:19 | 34.36851 | 137.95285 | 35276 ft | 534 kts | 131° |
| 2026-05-05 14:20 | 34.33002 | 138.02893 | 35275 ft | 528 kts | 136° |
| 2026-05-05 14:20 | 34.28542 | 138.09798 | 35270 ft | 518 kts | 141° |
| 2026-05-05 14:21 | 34.23991 | 138.16558 | 35270 ft | 519 kts | 140° |
| 2026-05-05 14:21 | 34.19481 | 138.23378 | 35267 ft | 519 kts | 140° |
| 2026-05-05 14:22 | 34.14987 | 138.30185 | 35272 ft | 518 kts | 140° |
| 2026-05-05 14:22 | 34.10469 | 138.36956 | 35269 ft | 518 kts | 140° |
| 2026-05-05 14:23 | 34.05947 | 138.43713 | 35268 ft | 517 kts | 140° |
| 2026-05-05 14:23 | 34.01427 | 138.50463 | 35267 ft | 518 kts | 140° |
| 2026-05-05 14:24 | 33.96901 | 138.57214 | 35269 ft | 518 kts | 140° |
| 2026-05-05 14:24 | 33.92364 | 138.63971 | 35270 ft | 519 kts | 140° |
| 2026-05-05 14:25 | 33.87818 | 138.70727 | 35272 ft | 520 kts | 140° |
| 2026-05-05 14:25 | 33.83287 | 138.77451 | 35269 ft | 520 kts | 140° |
| 2026-05-05 14:26 | 33.78917 | 138.84443 | 35249 ft | 538 kts | 126° |
| 2026-05-05 14:26 | 33.77677 | 138.88783 | 35286 ft | 562 kts | 107° |
| 2026-05-05 14:26 | 33.77419 | 138.93523 | 35274 ft | 575 kts | 89° |
| 2026-05-05 14:27 | 33.78169 | 138.98245 | 35262 ft | 578 kts | 71° |
| 2026-05-05 14:27 | 33.79908 | 139.02563 | 35296 ft | 573 kts | 57° |
| 2026-05-05 14:27 | 33.84199 | 139.10620 | 35296 ft | 578 kts | 54° |
| 2026-05-05 14:28 | 33.88560 | 139.18806 | 35282 ft | 583 kts | 56° |
| 2026-05-05 14:28 | 33.92766 | 139.27158 | 35285 ft | 582 kts | 57° |
| 2026-05-05 14:29 | 33.96898 | 139.35526 | 35283 ft | 579 kts | 57° |
| 2026-05-05 14:29 | 34.01027 | 139.43854 | 35287 ft | 577 kts | 57° |
| 2026-05-05 14:30 | 34.05147 | 139.52149 | 35294 ft | 576 kts | 57° |
| 2026-05-05 14:30 | 34.09614 | 139.60132 | 35285 ft | 572 kts | 48° |
| 2026-05-05 14:31 | 34.14628 | 139.67580 | 35295 ft | 572 kts | 46° |
| 2026-05-05 14:31 | 34.19672 | 139.75030 | 35300 ft | 574 kts | 47° |
| 2026-05-05 14:32 | 34.24669 | 139.82562 | 35303 ft | 575 kts | 47° |
| 2026-05-05 14:32 | 34.29652 | 139.90135 | 35302 ft | 575 kts | 47° |
| 2026-05-05 14:33 | 34.34634 | 139.97700 | 35303 ft | 575 kts | 47° |
| 2026-05-05 14:33 | 34.39570 | 140.05221 | 35299 ft | 574 kts | 47° |
| 2026-05-05 14:34 | 34.44533 | 140.12807 | 35297 ft | 573 kts | 47° |
| 2026-05-05 14:34 | 34.49090 | 140.20767 | 35297 ft | 576 kts | 55° |
| 2026-05-05 14:35 | 34.53280 | 140.29046 | 35303 ft | 576 kts | 56° |
| 2026-05-05 14:35 | 34.57480 | 140.37333 | 35303 ft | 576 kts | 55° |
| 2026-05-05 14:36 | 34.61717 | 140.45576 | 35304 ft | 576 kts | 55° |
| 2026-05-05 14:36 | 34.65966 | 140.53839 | 35306 ft | 576 kts | 55° |
| 2026-05-05 14:37 | 34.70215 | 140.61844 | 34577 ft | 540 kts | 46° |
| 2026-05-05 14:37 | 34.72848 | 140.64993 | 32784 ft | 526 kts | 28° |
| 2026-05-05 14:37 | 34.75984 | 140.67177 | 30762 ft | 515 kts | 13° |
| 2026-05-05 14:38 | 34.79318 | 140.68474 | 29068 ft | 490 kts | 2° |
| 2026-05-05 14:38 | 34.82600 | 140.68991 | 27510 ft | 465 kts | 355° |
| 2026-05-05 14:38 | 34.85784 | 140.69308 | 26069 ft | 454 kts | 356° |
| 2026-05-05 14:38 | 34.88886 | 140.69637 | 24735 ft | 442 kts | 358° |
| 2026-05-05 14:39 | 34.91913 | 140.69982 | 23356 ft | 431 kts | 359° |
| 2026-05-05 14:39 | 34.94862 | 140.70335 | 21868 ft | 421 kts | 1° |
| 2026-05-05 14:39 | 34.97747 | 140.70688 | 20445 ft | 412 kts | 2° |
| 2026-05-05 14:39 | 35.00577 | 140.71038 | 19106 ft | 404 kts | 4° |
| 2026-05-05 14:40 | 35.03249 | 140.71372 | 18583 ft | 377 kts | 4° |
| 2026-05-05 14:40 | 35.05840 | 140.71696 | 18015 ft | 376 kts | 4° |
| 2026-05-05 14:40 | 35.08473 | 140.72041 | 17461 ft | 384 kts | 6° |
| 2026-05-05 14:40 | 35.11140 | 140.72561 | 16906 ft | 392 kts | 9° |
| 2026-05-05 14:41 | 35.13835 | 140.73189 | 16350 ft | 395 kts | 10° |
| 2026-05-05 14:41 | 35.16522 | 140.73841 | 15791 ft | 394 kts | 11° |
| 2026-05-05 14:41 | 35.19209 | 140.74490 | 15255 ft | 393 kts | 11° |
| 2026-05-05 14:41 | 35.21893 | 140.75127 | 14706 ft | 392 kts | 10° |
| 2026-05-05 14:42 | 35.24565 | 140.75750 | 14156 ft | 391 kts | 10° |
| 2026-05-05 14:42 | 35.27241 | 140.76367 | 13535 ft | 391 kts | 10° |
| 2026-05-05 14:42 | 35.29915 | 140.76981 | 12948 ft | 390 kts | 10° |
| 2026-05-05 14:42 | 35.32557 | 140.77541 | 12358 ft | 393 kts | 6° |
| 2026-05-05 14:43 | 35.35313 | 140.77615 | 11798 ft | 395 kts | 355° |
| 2026-05-05 14:43 | 35.37955 | 140.77314 | 11352 ft | 366 kts | 352° |
| 2026-05-05 14:43 | 35.40367 | 140.76945 | 11203 ft | 334 kts | 351° |
| 2026-05-05 14:43 | 35.42583 | 140.76588 | 11063 ft | 309 kts | 350° |
| 2026-05-05 14:44 | 35.44639 | 140.76246 | 10942 ft | 288 kts | 350° |
| 2026-05-05 14:44 | 35.46559 | 140.75921 | 10852 ft | 269 kts | 350° |
| 2026-05-05 14:44 | 35.48364 | 140.75611 | 10775 ft | 258 kts | 350° |
| 2026-05-05 14:44 | 35.50150 | 140.75304 | 10685 ft | 262 kts | 349° |
| 2026-05-05 14:45 | 35.51973 | 140.74884 | 10321 ft | 273 kts | 342° |
| 2026-05-05 14:45 | 35.53807 | 140.74221 | 9720 ft | 284 kts | 340° |
| 2026-05-05 14:45 | 35.55720 | 140.73486 | 9173 ft | 291 kts | 340° |
| 2026-05-05 14:45 | 35.57639 | 140.72743 | 8907 ft | 287 kts | 340° |
| 2026-05-05 14:46 | 35.59529 | 140.72009 | 8658 ft | 283 kts | 340° |
| 2026-05-05 14:46 | 35.61394 | 140.71282 | 8400 ft | 279 kts | 340° |
| 2026-05-05 14:46 | 35.63232 | 140.70565 | 8150 ft | 276 kts | 340° |
| 2026-05-05 14:46 | 35.65053 | 140.69853 | 7903 ft | 272 kts | 340° |
| 2026-05-05 14:47 | 35.66847 | 140.69150 | 7654 ft | 269 kts | 340° |
| 2026-05-05 14:47 | 35.68559 | 140.68328 | 7329 ft | 260 kts | 326° |
| 2026-05-05 14:47 | 35.70002 | 140.66992 | 6994 ft | 260 kts | 317° |
| 2026-05-05 14:47 | 35.70910 | 140.66025 | 6763 ft | 261 kts | 317° |
| 2026-05-05 14:48 | 35.72734 | 140.64083 | 6299 ft | 263 kts | 317° |
| 2026-05-05 14:48 | 35.73679 | 140.63104 | 6052 ft | 264 kts | 318° |
| 2026-05-05 14:48 | 35.75094 | 140.61666 | 5738 ft | 263 kts | 319° |
| 2026-05-05 14:48 | 35.76513 | 140.60253 | 5461 ft | 261 kts | 319° |
| 2026-05-05 14:49 | 35.77931 | 140.58863 | 5201 ft | 260 kts | 320° |
| 2026-05-05 14:49 | 35.79347 | 140.57483 | 4916 ft | 259 kts | 320° |
| 2026-05-05 14:49 | 35.80769 | 140.56115 | 4570 ft | 260 kts | 320° |
| 2026-05-05 14:49 | 35.82197 | 140.54739 | 4257 ft | 260 kts | 319° |
| 2026-05-05 14:50 | 35.83606 | 140.53386 | 4067 ft | 258 kts | 319° |
| 2026-05-05 14:50 | 35.85013 | 140.52041 | 4035 ft | 255 kts | 319° |
| 2026-05-05 14:50 | 35.86418 | 140.50682 | 4008 ft | 258 kts | 319° |
| 2026-05-05 14:50 | 35.87836 | 140.49355 | 3995 ft | 254 kts | 320° |
| 2026-05-05 14:51 | 35.89237 | 140.48016 | 4000 ft | 255 kts | 319° |
| 2026-05-05 14:51 | 35.90645 | 140.46642 | 4007 ft | 259 kts | 319° |
| 2026-05-05 14:51 | 35.92070 | 140.45263 | 3994 ft | 261 kts | 319° |
| 2026-05-05 14:51 | 35.93506 | 140.43886 | 3994 ft | 261 kts | 319° |
| 2026-05-05 14:52 | 35.94934 | 140.42505 | 3985 ft | 260 kts | 318° |
| 2026-05-05 14:52 | 35.96309 | 140.41096 | 4010 ft | 252 kts | 310° |
| 2026-05-05 14:52 | 35.97408 | 140.39407 | 3987 ft | 251 kts | 302° |
| 2026-05-05 14:52 | 35.98418 | 140.37640 | 3995 ft | 255 kts | 302° |
| 2026-05-05 14:53 | 35.99470 | 140.35847 | 3778 ft | 262 kts | 302° |
| 2026-05-05 14:53 | 36.00326 | 140.33960 | 3514 ft | 242 kts | 279° |
| 2026-05-05 14:53 | 36.00357 | 140.32000 | 3377 ft | 222 kts | 255° |
| 2026-05-05 14:53 | 35.99864 | 140.30188 | 3277 ft | 230 kts | 239° |
| 2026-05-05 14:54 | 35.98990 | 140.28542 | 3166 ft | 226 kts | 230° |
| 2026-05-05 14:54 | 35.97811 | 140.27387 | 3050 ft | 215 kts | 200° |
| 2026-05-05 14:54 | 35.96384 | 140.27229 | 2926 ft | 201 kts | 168° |
| 2026-05-05 14:54 | 35.95127 | 140.27706 | 2825 ft | 176 kts | 164° |
| 2026-05-05 14:55 | 35.94039 | 140.28275 | 2659 ft | 164 kts | 158° |
| 2026-05-05 14:55 | 35.93063 | 140.28825 | 2514 ft | 146 kts | 158° |
| 2026-05-05 14:55 | 35.92200 | 140.29370 | 2432 ft | 137 kts | 156° |
| 2026-05-05 14:55 | 35.91367 | 140.29949 | 2331 ft | 138 kts | 154° |
| 2026-05-05 14:56 | 35.90559 | 140.30527 | 2211 ft | 126 kts | 154° |
| 2026-05-05 14:56 | 35.89841 | 140.31047 | 2080 ft | 116 kts | 155° |
| 2026-05-05 14:56 | 35.89134 | 140.31560 | 2005 ft | 120 kts | 155° |
| 2026-05-05 14:56 | 35.88436 | 140.32057 | 1899 ft | 112 kts | 154° |
| 2026-05-05 14:57 | 35.87719 | 140.32583 | 1792 ft | 123 kts | 154° |
| 2026-05-05 14:57 | 35.86986 | 140.33121 | 1622 ft | 121 kts | 154° |
| 2026-05-05 14:57 | 35.86280 | 140.33632 | 1465 ft | 120 kts | 154° |
| 2026-05-05 14:57 | 35.85553 | 140.34164 | 1306 ft | 122 kts | 159° |
| 2026-05-05 14:58 | 35.84797 | 140.34690 | 1136 ft | 126 kts | 157° |
| 2026-05-05 14:58 | 35.84047 | 140.35249 | 1016 ft | 128 kts | 154° |
| 2026-05-05 14:58 | 35.83282 | 140.35801 | 767 ft | 126 kts | 155° |
| 2026-05-05 14:58 | 35.82512 | 140.36363 | 666 ft | 128 kts | 152° |
| 2026-05-05 14:59 | 35.81731 | 140.36917 | 466 ft | 129 kts | 152° |
| 2026-05-05 14:59 | 35.80958 | 140.37499 | 299 ft | 129 kts | 152° |
| 2026-05-05 14:59 | 35.80192 | 140.38042 | 157 ft | 121 kts | 148° |
| 2026-05-05 14:59 | 35.79597 | 140.38476 | 148 ft | 74 kts | 149° |
| 2026-05-05 15:00 | 35.79289 | 140.38695 | 150 ft | 41 kts | 150° |
| 2026-05-05 15:00 | 35.79125 | 140.38813 | 149 ft | 39 kts | 149° |
| 2026-05-05 15:00 | 35.78816 | 140.38940 | 147 ft | 33 kts | 176° |
| 2026-05-05 15:00 | 35.78621 | 140.38963 | 148 ft | 23 kts | 173° |
| 2026-05-05 15:01 | 35.78494 | 140.39058 | 148 ft | 21 kts | 137° |
| 2026-05-05 15:01 | 35.78366 | 140.39139 | 148 ft | 21 kts | 167° |
| 2026-05-05 15:01 | 35.78241 | 140.39177 | 148 ft | 17 kts | 165° |
| 2026-05-05 15:01 | 35.78147 | 140.39180 | 148 ft | 13 kts | 212° |
| 2026-05-05 15:02 | 35.78071 | 140.39122 | 148 ft | 13 kts | 181° |
| 2026-05-05 15:02 | 35.77989 | 140.39167 | 148 ft | 13 kts | 139° |
| 2026-05-05 15:02 | 35.77939 | 140.39262 | 148 ft | 13 kts | 115° |
| 2026-05-05 15:02 | 35.77898 | 140.39364 | 148 ft | 13 kts | 117° |
| 2026-05-05 15:03 | 35.77854 | 140.39463 | 148 ft | 13 kts | 126° |
| 2026-05-05 15:03 | 35.77781 | 140.39530 | 148 ft | 13 kts | 149° |
| 2026-05-05 15:03 | 35.77703 | 140.39587 | 148 ft | 13 kts | 149° |
| 2026-05-05 15:03 | 35.77623 | 140.39644 | 148 ft | 13 kts | 150° |
| 2026-05-05 15:04 | 35.77544 | 140.39701 | 148 ft | 13 kts | 150° |
| 2026-05-05 15:04 | 35.77465 | 140.39758 | 148 ft | 13 kts | 149° |
| 2026-05-05 15:04 | 35.77385 | 140.39815 | 148 ft | 13 kts | 149° |
| 2026-05-05 15:04 | 35.77306 | 140.39873 | 148 ft | 13 kts | 149° |
| 2026-05-05 15:05 | 35.77147 | 140.39986 | 148 ft | 13 kts | 154° |
| 2026-05-05 15:05 | 35.77058 | 140.39988 | 148 ft | 13 kts | 199° |
| 2026-05-05 15:05 | 35.76973 | 140.39945 | 148 ft | 13 kts | 202° |
| 2026-05-05 15:06 | 35.76890 | 140.39895 | 148 ft | 13 kts | 210° |
| 2026-05-05 15:06 | 35.76871 | 140.39796 | 148 ft | 13 kts | 290° |
| 2026-05-05 15:06 | 35.76908 | 140.39692 | 148 ft | 13 kts | 293° |
| 2026-05-05 15:06 | 35.76908 | 140.39584 | 148 ft | 13 kts | 243° |
| 2026-05-05 15:07 | 35.76865 | 140.39484 | 148 ft | 13 kts | 249° |
| 2026-05-05 15:07 | 35.76828 | 140.39384 | 148 ft | 13 kts | 220° |
| 2026-05-05 15:07 | 35.76747 | 140.39332 | 148 ft | 13 kts | 204° |
| 2026-05-05 15:07 | 35.76663 | 140.39286 | 148 ft | 13 kts | 204° |
| 2026-05-05 15:08 | 35.76579 | 140.39239 | 148 ft | 13 kts | 204° |
| 2026-05-05 15:08 | 35.76496 | 140.39193 | 148 ft | 13 kts | 204° |
| 2026-05-05 15:08 | 35.76429 | 140.39152 | 148 ft | 7 kts | 224° |
| 2026-05-05 15:08 | 35.76426 | 140.39110 | 148 ft | 5 kts | 279° |
| 2026-05-05 15:09 | 35.76442 | 140.39058 | 148 ft | 6 kts | 294° |
| 2026-05-05 15:09 | 35.76446 | 140.39046 | 148 ft | 0 kts | 294° |